Time;durP1;ratioP1;P1;durP2;ratioP2;P2;SDS_P1;SDS_P2;PMS_P1;PMS_P2;Temp;Humidity;BMP_temperature;BMP_pressure;BME280_temperature;BME280_humidity;BME280_pressure;Samples;Min_cycle;Max_cycle;Signal;HPM_P1;HPM_P2
2023/10/11 00:02:57;;;;;;;43.97;20.33;;;;;;;;;;5033841;28;20029;-69
2023/10/11 00:05:23;;;;;;;43.13;18.48;;;;;;;;;;5032666;28;20023;-69
2023/10/11 00:07:49;;;;;;;44.10;18.85;;;;;;;;;;5034645;28;20048;-70
2023/10/11 00:10:22;;;;;;;46.75;18.27;;;;;;;;;;5034620;28;20472;-69
2023/10/11 00:12:50;;;;;;;47.22;15.55;;;;;;;;;;5034952;28;20368;-69
2023/10/11 00:15:16;;;;;;;37.92;18.35;;;;;;;;;;5033444;28;20544;-69
2023/10/11 00:17:42;;;;;;;45.13;18.13;;;;;;;;;;5034492;28;20033;-69
2023/10/11 00:20:19;;;;;;;41.58;17.55;;;;;;;;;;5034672;28;20025;-69
2023/10/11 00:22:45;;;;;;;43.10;18.00;;;;;;;;;;5034746;28;20522;-70
2023/10/11 00:25:12;;;;;;;37.67;15.13;;;;;;;;;;5034628;28;20391;-69
2023/10/11 00:27:37;;;;;;;45.45;19.27;;;;;;;;;;5034283;28;20480;-70
2023/10/11 00:30:03;;;;;;;38.35;16.70;;;;;;;;;;5034246;28;20022;-69
2023/10/11 00:32:29;;;;;;;33.60;15.85;;;;;;;;;;5034498;28;20383;-69
2023/10/11 00:34:54;;;;;;;43.10;17.85;;;;;;;;;;5033054;28;20025;-69
2023/10/11 00:37:20;;;;;;;45.47;16.15;;;;;;;;;;5034119;28;20033;-69
2023/10/11 00:39:45;;;;;;;36.45;16.98;;;;;;;;;;5033982;28;20399;-70
2023/10/11 00:42:10;;;;;;;40.63;16.65;;;;;;;;;;5034121;28;20048;-70
2023/10/11 00:44:36;;;;;;;41.63;16.75;;;;;;;;;;5032843;28;20101;-69
2023/10/11 00:47:06;;;;;;;41.05;16.75;;;;;;;;;;5032764;28;20057;-70
2023/10/11 00:49:35;;;;;;;39.13;17.05;;;;;;;;;;5032669;28;20446;-69
2023/10/11 00:52:06;;;;;;;39.97;15.90;;;;;;;;;;5033867;28;20021;-69
2023/10/11 00:54:31;;;;;;;;;;;;;;;;;;5033473;28;20029;-69
2023/10/11 00:56:57;;;;;;;41.73;16.07;;;;;;;;;;5033817;28;19908;-69
2023/10/11 00:59:22;;;;;;;43.20;17.05;;;;;;;;;;5032548;28;20017;-69
2023/10/11 01:01:50;;;;;;;35.70;16.25;;;;;;;;;;5033764;28;20488;-69
2023/10/11 01:04:16;;;;;;;30.92;13.77;;;;;;;;;;5032727;28;20105;-69
2023/10/11 01:06:41;;;;;;;34.13;14.48;;;;;;;;;;5033628;28;20025;-69
2023/10/11 01:09:16;;;;;;;41.03;15.98;;;;;;;;;;5033478;28;20080;-69
2023/10/11 01:11:42;;;;;;;34.83;16.83;;;;;;;;;;5032753;28;20033;-69
2023/10/11 01:14:08;;;;;;;39.33;16.13;;;;;;;;;;5033511;28;20426;-69
2023/10/11 01:16:35;;;;;;;38.00;16.95;;;;;;;;;;5032189;28;20021;-69
2023/10/11 01:19:00;;;;;;;41.58;17.75;;;;;;;;;;5032090;28;20025;-69
2023/10/11 01:21:32;;;;;;;42.03;17.08;;;;;;;;;;5033425;28;20028;-69
2023/10/11 01:23:57;;;;;;;38.30;15.70;;;;;;;;;;5032566;28;20048;-70
2023/10/11 01:26:23;;;;;;;41.05;16.95;;;;;;;;;;5033267;28;20468;-70
2023/10/11 01:28:48;;;;;;;38.65;14.98;;;;;;;;;;5033314;28;20128;-70
2023/10/11 01:31:16;;;;;;;38.42;16.05;;;;;;;;;;5032379;28;20030;-70
2023/10/11 01:33:43;;;;;;;35.15;14.73;;;;;;;;;;5033209;28;20025;-69
2023/10/11 01:36:21;;;;;;;38.22;13.82;;;;;;;;;;5033205;28;20398;-70
2023/10/11 01:38:49;;;;;;;;;;;;;;;;;;5033597;28;20021;-69
2023/10/11 01:41:16;;;;;;;39.92;13.90;;;;;;;;;;5033445;28;20267;-70
2023/10/11 01:43:42;;;;;;;37.13;15.63;;;;;;;;;;5031939;28;20022;-70
2023/10/11 01:46:07;;;;;;;36.83;17.20;;;;;;;;;;5031913;28;20031;-69
2023/10/11 01:48:33;;;;;;;42.28;15.25;;;;;;;;;;5031869;28;20113;-70
2023/10/11 01:51:04;;;;;;;40.80;14.57;;;;;;;;;;5033344;28;20025;-70
2023/10/11 01:53:30;;;;;;;38.13;15.00;;;;;;;;;;5033026;28;20028;-69
2023/10/11 01:55:55;;;;;;;39.50;14.82;;;;;;;;;;5032968;28;20018;-70
2023/10/11 01:58:20;;;;;;;45.75;15.57;;;;;;;;;;5033090;28;20075;-69
2023/10/11 02:00:48;;;;;;;44.35;15.25;;;;;;;;;;5033247;28;20109;-69
2023/10/11 02:03:14;;;;;;;41.08;16.13;;;;;;;;;;5032914;28;20502;-69
2023/10/11 02:05:39;;;;;;;43.75;15.27;;;;;;;;;;5031707;28;20029;-70
2023/10/11 02:08:12;;;;;;;34.38;13.52;;;;;;;;;;5031644;28;20025;-69
2023/10/11 02:10:38;;;;;;;48.78;14.75;;;;;;;;;;5032883;28;20117;-69
2023/10/11 02:13:04;;;;;;;42.65;14.07;;;;;;;;;;5032817;28;20065;-70
2023/10/11 02:15:34;;;;;;;56.80;16.20;;;;;;;;;;5031739;28;20032;-69
2023/10/11 02:18:00;;;;;;;41.72;13.55;;;;;;;;;;5031574;28;20499;-69
2023/10/11 02:20:25;;;;;;;45.28;14.23;;;;;;;;;;5031654;28;20032;-69
2023/10/11 02:22:52;;;;;;;47.97;15.45;;;;;;;;;;5032764;28;20021;-69
2023/10/11 02:25:19;;;;;;;41.22;14.88;;;;;;;;;;5032970;28;20031;-70
2023/10/11 02:27:45;;;;;;;39.13;13.30;;;;;;;;;;5032953;28;20021;-69
2023/10/11 02:30:19;;;;;;;42.50;13.95;;;;;;;;;;5035428;28;20026;-69
2023/10/11 02:32:44;;;;;;;43.92;13.50;;;;;;;;;;5035544;28;20079;-69
2023/10/11 02:35:13;;;;;;;43.40;14.07;;;;;;;;;;5036491;28;20430;-69
2023/10/11 02:37:39;;;;;;;40.28;15.32;;;;;;;;;;5035539;28;20107;-69
2023/10/11 02:40:07;;;;;;;43.95;15.70;;;;;;;;;;5035341;28;20026;-69
2023/10/11 02:42:36;;;;;;;48.70;15.02;;;;;;;;;;5036965;28;20032;-69
2023/10/11 02:45:07;;;;;;;35.25;11.25;;;;;;;;;;5036308;28;20399;-69
2023/10/11 02:47:35;;;;;;;47.38;14.95;;;;;;;;;;5036332;28;20025;-69
2023/10/11 02:50:05;;;;;;;41.53;14.07;;;;;;;;;;5035018;28;20473;-69
2023/10/11 02:52:36;;;;;;;46.47;14.18;;;;;;;;;;5036157;28;20025;-69
2023/10/11 02:57:45;;;;;;;51.63;13.70;;;;;;;;;;5035318;28;20492;-69
2023/10/11 03:00:21;;;;;;;43.53;13.98;;;;;;;;;;5036034;28;20025;-69
2023/10/11 03:02:54;;;;;;;46.15;13.95;;;;;;;;;;5036269;28;20079;-69
2023/10/11 03:05:20;;;;;;;41.28;13.30;;;;;;;;;;5034820;28;20112;-69
2023/10/11 03:07:46;;;;;;;39.95;13.18;;;;;;;;;;5035804;28;20021;-69
2023/10/11 03:10:13;;;;;;;41.88;13.38;;;;;;;;;;5035791;28;20029;-70
2023/10/11 03:12:39;;;;;;;40.75;12.05;;;;;;;;;;5036012;28;20029;-70
2023/10/11 03:15:12;;;;;;;44.70;14.30;;;;;;;;;;5034435;28;20068;-70
2023/10/11 03:17:41;;;;;;;58.50;14.10;;;;;;;;;;5034540;28;20075;-69
2023/10/11 03:20:08;;;;;;;40.28;12.95;;;;;;;;;;5035704;28;20021;-70
2023/10/11 03:22:35;;;;;;;50.70;13.93;;;;;;;;;;5035596;28;20022;-69
2023/10/11 03:25:01;;;;;;;41.83;13.35;;;;;;;;;;5035840;28;20540;-70
2023/10/11 03:27:36;;;;;;;52.67;15.10;;;;;;;;;;5034366;28;20107;-69
2023/10/11 03:30:01;;;;;;;54.90;14.43;;;;;;;;;;5034293;28;20029;-69
2023/10/11 03:32:26;;;;;;;47.88;17.58;;;;;;;;;;5035722;28;20030;-69
2023/10/11 03:34:52;;;;;;;47.63;16.17;;;;;;;;;;5035379;28;20032;-69
2023/10/11 03:37:20;;;;;;;43.92;13.55;;;;;;;;;;5035594;28;20029;-70
2023/10/11 03:39:55;;;;;;;53.08;14.82;;;;;;;;;;5033797;28;20021;-69
2023/10/11 03:42:21;;;;;;;44.80;14.60;;;;;;;;;;5035605;28;20044;-70
2023/10/11 03:44:47;;;;;;;40.88;15.52;;;;;;;;;;5034341;28;20479;-69
2023/10/11 03:47:23;;;;;;;48.83;15.63;;;;;;;;;;5033976;28;20030;-69
2023/10/11 03:49:52;;;;;;;51.67;16.00;;;;;;;;;;5033982;28;20052;-69
2023/10/11 03:52:25;;;;;;;44.35;14.45;;;;;;;;;;5033930;28;20021;-69
2023/10/11 03:54:54;;;;;;;54.92;15.70;;;;;;;;;;5033925;28;20502;-69
2023/10/11 03:57:20;;;;;;;47.78;15.20;;;;;;;;;;5034086;28;20025;-70
2023/10/11 03:59:51;;;;;;;42.45;14.75;;;;;;;;;;5034884;28;20101;-69
2023/10/11 04:02:17;;;;;;;40.65;13.82;;;;;;;;;;5035030;28;20033;-69
2023/10/11 04:04:44;;;;;;;41.60;14.30;;;;;;;;;;5034789;28;20026;-69
2023/10/11 04:07:12;;;;;;;47.05;13.73;;;;;;;;;;5033847;28;20033;-70
2023/10/11 04:09:39;;;;;;;55.03;16.50;;;;;;;;;;5034596;28;20025;-69
2023/10/11 04:12:04;;;;;;;55.83;15.00;;;;;;;;;;5033536;28;20042;-69
2023/10/11 04:14:45;;;;;;;48.50;13.50;;;;;;;;;;5034619;28;20029;-69
2023/10/11 04:17:24;;;;;;;62.17;15.35;;;;;;;;;;5034626;28;20550;-70
2023/10/11 04:19:50;;;;;;;46.30;14.05;;;;;;;;;;5034545;28;20025;-69
2023/10/11 04:22:17;;;;;;;49.30;15.02;;;;;;;;;;5033333;28;20025;-69
2023/10/11 04:24:45;;;;;;;46.53;13.98;;;;;;;;;;5033294;28;20025;-69
2023/10/11 04:29:51;;;;;;;46.78;15.30;;;;;;;;;;5034586;28;20040;-69
2023/10/11 04:35:02;;;;;;;57.22;13.93;;;;;;;;;;5034563;28;20071;-69
2023/10/11 04:37:28;;;;;;;50.28;13.82;;;;;;;;;;5032998;28;20021;-70
2023/10/11 04:40:16;;;;;;;36.70;12.90;;;;;;;;;;5033979;28;20475;-69
2023/10/11 04:42:41;;;;;;;44.78;13.32;;;;;;;;;;5034136;28;20026;-69
2023/10/11 04:45:08;;;;;;;44.30;14.20;;;;;;;;;;5033152;28;20527;-69
2023/10/11 04:47:50;;;;;;;42.22;13.98;;;;;;;;;;5034304;28;20100;-69
2023/10/11 04:50:16;;;;;;;39.08;15.13;;;;;;;;;;5034514;28;20480;-70
2023/10/11 04:52:47;;;;;;;41.17;13.32;;;;;;;;;;5032323;28;20036;-69
2023/10/11 04:55:14;;;;;;;48.47;14.32;;;;;;;;;;5033858;28;20028;-69
2023/10/11 05:00:30;;;;;;;37.17;12.80;;;;;;;;;;5033824;28;20394;-69
2023/10/11 05:02:58;;;;;;;36.83;15.02;;;;;;;;;;5033756;28;20480;-69
2023/10/11 05:05:24;;;;;;;48.08;12.43;;;;;;;;;;5032785;28;20526;-69
2023/10/11 05:08:01;;;;;;;42.80;12.95;;;;;;;;;;5033558;28;20025;-69
2023/10/11 05:13:04;;;;;;;40.90;12.18;;;;;;;;;;5033871;28;20388;-69
2023/10/11 05:15:34;;;;;;;42.78;13.60;;;;;;;;;;5033551;28;20100;-69
2023/10/11 05:18:00;;;;;;;44.33;15.20;;;;;;;;;;5033412;28;20080;-69
2023/10/11 05:20:44;;;;;;;47.20;14.05;;;;;;;;;;5032234;28;20022;-69
2023/10/11 05:23:13;;;;;;;51.28;15.57;;;;;;;;;;5033757;28;20483;-69
2023/10/11 05:25:57;;;;;;;42.92;13.20;;;;;;;;;;5032514;28;20537;-70
2023/10/11 05:31:19;;;;;;;37.60;12.90;;;;;;;;;;5032152;28;20492;-69
2023/10/11 05:33:57;;;;;;;43.47;12.70;;;;;;;;;;5032396;28;20021;-69
2023/10/11 05:52:46;;;;;;;40.80;13.35;;;;;;;;;;5033011;28;20072;-69
2023/10/11 05:55:12;;;;;;;45.22;14.00;;;;;;;;;;5031806;28;20051;-69
2023/10/11 05:57:38;;;;;;;48.00;13.68;;;;;;;;;;5031717;28;20018;-69
2023/10/11 06:00:17;;;;;;;38.50;12.82;;;;;;;;;;5032117;28;20021;-69
2023/10/11 06:02:43;;;;;;;41.33;13.27;;;;;;;;;;5032956;28;20614;-69
2023/10/11 06:05:10;;;;;;;35.92;12.32;;;;;;;;;;5036394;28;20038;-69
2023/10/11 06:07:37;;;;;;;44.20;12.80;;;;;;;;;;5037264;28;20029;-69
2023/10/11 06:10:06;;;;;;;28.50;10.75;;;;;;;;;;5037139;28;20029;-69
2023/10/11 06:12:33;;;;;;;38.08;12.50;;;;;;;;;;5035689;28;20025;-69
2023/10/11 06:15:03;;;;;;;32.25;11.70;;;;;;;;;;5036830;28;20102;-69
2023/10/11 06:17:48;;;;;;;49.97;12.95;;;;;;;;;;5035682;28;20057;-69
2023/10/11 06:20:23;;;;;;;31.25;9.77;;;;;;;;;;5036813;28;20021;-69
2023/10/11 06:22:51;;;;;;;37.72;12.13;;;;;;;;;;5036757;28;20604;-69
2023/10/11 06:26:28;;;;;;;35.83;12.32;;;;;;;;;;5036702;28;20398;-69
2023/10/11 06:28:15;;;;;;;39.47;11.07;;;;;;;;;;5031773;28;20045;-69
2023/10/11 06:30:42;;;;;;;38.90;10.25;;;;;;;;;;5036620;28;20017;-69
2023/10/11 06:33:12;;;;;;;38.83;11.18;;;;;;;;;;5035462;28;20052;-70
2023/10/11 06:35:43;;;;;;;36.80;11.40;;;;;;;;;;5036756;28;20025;-69
2023/10/11 06:38:10;;;;;;;27.38;8.90;;;;;;;;;;5036310;28;20029;-69
2023/10/11 06:40:39;;;;;;;28.05;10.95;;;;;;;;;;5037266;28;20068;-69
2023/10/11 06:43:06;;;;;;;29.42;9.23;;;;;;;;;;5035602;28;20097;-69
2023/10/11 06:45:31;;;;;;;30.88;9.82;;;;;;;;;;5035563;28;20029;-69
2023/10/11 06:48:06;;;;;;;30.67;9.82;;;;;;;;;;5037460;28;21620;-69
2023/10/11 06:50:35;;;;;;;25.77;8.43;;;;;;;;;;5036555;28;20107;-69
2023/10/11 06:53:06;;;;;;;31.02;9.40;;;;;;;;;;5035000;28;20025;-69
2023/10/11 06:55:33;;;;;;;26.33;9.65;;;;;;;;;;5035055;28;20017;-69
2023/10/11 06:58:02;;;;;;;34.20;8.98;;;;;;;;;;5035995;28;20021;-69
2023/10/11 07:00:28;;;;;;;36.25;9.05;;;;;;;;;;5035965;28;20014;-69
2023/10/11 07:03:09;;;;;;;36.00;9.90;;;;;;;;;;5035106;28;20487;-69
2023/10/11 07:05:42;;;;;;;28.38;8.63;;;;;;;;;;5036041;28;20033;-69
2023/10/11 07:08:17;;;;;;;22.02;8.30;;;;;;;;;;5034731;28;20025;-69
2023/10/11 07:10:45;;;;;;;34.20;9.68;;;;;;;;;;5034973;28;20025;-69
2023/10/11 07:13:14;;;;;;;38.10;10.20;;;;;;;;;;5034658;28;20394;-69
2023/10/11 07:15:44;;;;;;;30.88;9.65;;;;;;;;;;5034590;28;20025;-69
2023/10/11 07:18:28;;;;;;;21.60;8.65;;;;;;;;;;5034711;28;20034;-69
2023/10/11 07:20:58;;;;;;;23.10;9.32;;;;;;;;;;5035718;28;20025;-69
2023/10/11 07:23:27;;;;;;;24.70;8.52;;;;;;;;;;5034452;28;20028;-69
2023/10/11 07:26:23;;;;;;;24.45;8.00;;;;;;;;;;5034267;28;20022;-69
2023/10/11 07:28:51;;;;;;;34.85;9.45;;;;;;;;;;5035296;28;20060;-69
2023/10/11 07:31:32;;;;;;;28.95;8.93;;;;;;;;;;5035447;28;20045;-69
2023/10/11 07:33:59;;;;;;;26.23;7.43;;;;;;;;;;5034602;28;20384;-69
2023/10/11 07:36:25;;;;;;;30.40;8.85;;;;;;;;;;5035290;28;20109;-69
2023/10/11 07:39:00;;;;;;;28.40;8.45;;;;;;;;;;5035094;28;20029;-69
2023/10/11 07:41:28;;;;;;;27.05;9.90;;;;;;;;;;5034527;28;20018;-69
2023/10/11 07:43:57;;;;;;;22.52;9.18;;;;;;;;;;5034080;28;20491;-69
2023/10/11 07:46:23;;;;;;;26.55;9.02;;;;;;;;;;5034112;28;20028;-69
2023/10/11 07:48:48;;;;;;;30.33;9.18;;;;;;;;;;5034759;28;20524;-69
2023/10/11 07:51:14;;;;;;;34.35;9.68;;;;;;;;;;5034857;28;20037;-69
2023/10/11 07:53:45;;;;;;;28.27;8.95;;;;;;;;;;5034779;28;20085;-69
2023/10/11 07:56:12;;;;;;;30.58;9.20;;;;;;;;;;5034806;28;20032;-69
2023/10/11 07:58:45;;;;;;;29.50;9.40;;;;;;;;;;5034745;28;20032;-69
2023/10/11 08:01:25;;;;;;;22.23;8.07;;;;;;;;;;5034928;28;20048;-69
2023/10/11 08:03:51;;;;;;;25.52;9.50;;;;;;;;;;5034618;28;20032;-69
2023/10/11 08:06:23;;;;;;;25.92;9.57;;;;;;;;;;5033215;28;20070;-70
2023/10/11 08:08:48;;;;;;;19.83;7.88;;;;;;;;;;5034330;28;20025;-69
2023/10/11 08:11:22;;;;;;;20.77;6.53;;;;;;;;;;5034833;28;20383;-69
2023/10/11 08:13:49;;;;;;;28.98;7.15;;;;;;;;;;5033493;28;20428;-69
2023/10/11 08:16:17;;;;;;;21.17;7.80;;;;;;;;;;5033449;28;20495;-69
2023/10/11 08:18:48;;;;;;;26.95;8.90;;;;;;;;;;5034500;28;20026;-69
2023/10/11 08:21:14;;;;;;;;;;;;;;;;;;5033809;28;20506;-69
2023/10/11 08:23:42;;;;;;;33.65;7.68;;;;;;;;;;5033266;28;19909;-69
2023/10/11 08:26:08;;;;;;;21.50;7.10;;;;;;;;;;5033639;28;20097;-69
2023/10/11 08:28:34;;;;;;;21.90;7.30;;;;;;;;;;5034342;28;20483;-69
2023/10/11 08:31:00;;;;;;;22.52;6.70;;;;;;;;;;5034554;28;20438;-69
2023/10/11 08:33:30;;;;;;;21.05;7.15;;;;;;;;;;5033075;28;20021;-69
2023/10/11 08:35:55;;;;;;;23.05;7.00;;;;;;;;;;5033105;28;20033;-69
2023/10/11 08:38:24;;;;;;;23.25;7.90;;;;;;;;;;5034156;28;20037;-69
2023/10/11 08:40:50;;;;;;;16.60;7.00;;;;;;;;;;5033357;28;20064;-69
2023/10/11 08:43:16;;;;;;;18.98;7.40;;;;;;;;;;5032886;28;20021;-69
2023/10/11 08:45:49;;;;;;;26.67;7.63;;;;;;;;;;5032886;28;20032;-69
2023/10/11 08:48:15;;;;;;;24.55;9.13;;;;;;;;;;5034137;28;20029;-69
2023/10/11 08:50:44;;;;;;;24.38;6.95;;;;;;;;;;5032993;28;20036;-69
2023/10/11 08:53:10;;;;;;;24.52;7.40;;;;;;;;;;5033882;28;20027;-69
2023/10/11 08:55:39;;;;;;;25.13;7.43;;;;;;;;;;5034144;28;20021;-69
2023/10/11 08:58:12;;;;;;;23.27;8.02;;;;;;;;;;5033742;28;20021;-69
2023/10/11 09:00:37;;;;;;;22.48;8.50;;;;;;;;;;5033835;28;20049;-69
2023/10/11 09:03:19;;;;;;;24.75;8.25;;;;;;;;;;5032753;28;20055;-69
2023/10/11 09:05:44;;;;;;;23.95;8.43;;;;;;;;;;5032528;28;20031;-69
2023/10/11 09:08:26;;;;;;;20.33;7.40;;;;;;;;;;5032344;28;20112;-69
2023/10/11 09:10:52;;;;;;;24.88;9.00;;;;;;;;;;5034198;28;20188;-69
2023/10/11 09:13:26;;;;;;;32.53;7.88;;;;;;;;;;5032690;28;20108;-69
2023/10/11 09:15:54;;;;;;;22.58;8.15;;;;;;;;;;5033831;28;20026;-69
2023/10/11 09:18:20;;;;;;;24.77;8.32;;;;;;;;;;5033373;28;20099;-69
2023/10/11 09:20:58;;;;;;;25.00;7.03;;;;;;;;;;5033769;28;20463;-69
2023/10/11 09:23:37;;;;;;;21.42;6.93;;;;;;;;;;5032420;28;20460;-69
2023/10/11 09:26:05;;;;;;;26.08;7.20;;;;;;;;;;5033401;28;20503;-69
2023/10/11 09:28:33;;;;;;;26.17;7.35;;;;;;;;;;5032100;28;20021;-70
2023/10/11 09:31:11;;;;;;;24.77;8.02;;;;;;;;;;5033266;28;20064;-69
2023/10/11 09:33:41;;;;;;;25.50;8.20;;;;;;;;;;5032118;28;20049;-69
2023/10/11 09:36:08;;;;;;;22.95;7.47;;;;;;;;;;5033293;28;20060;-69
2023/10/11 09:38:39;;;;;;;23.42;7.65;;;;;;;;;;5032949;28;20496;-69
2023/10/11 09:41:08;;;;;;;19.15;7.80;;;;;;;;;;5033212;28;20051;-69
2023/10/11 09:43:37;;;;;;;25.90;8.93;;;;;;;;;;5032010;28;20476;-69
2023/10/11 09:46:03;;;;;;;27.27;7.90;;;;;;;;;;5031914;28;20120;-69
2023/10/11 09:48:29;;;;;;;33.15;8.45;;;;;;;;;;5031861;28;20025;-69
2023/10/11 09:50:57;;;;;;;22.25;7.10;;;;;;;;;;5033010;28;20029;-69
2023/10/11 09:53:25;;;;;;;25.92;9.10;;;;;;;;;;5031799;28;20029;-69
2023/10/11 09:55:58;;;;;;;23.83;8.93;;;;;;;;;;5032993;28;20022;-69
2023/10/11 09:58:45;;;;;;;26.85;7.15;;;;;;;;;;5031758;28;20057;-69
2023/10/11 10:01:10;;;;;;;25.27;9.43;;;;;;;;;;5033549;28;20033;-69
2023/10/11 10:03:38;;;;;;;19.98;7.55;;;;;;;;;;5033184;28;20029;-69
2023/10/11 10:06:19;;;;;;;26.95;7.53;;;;;;;;;;5033149;28;20025;-69
2023/10/11 10:09:16;;;;;;;21.02;7.47;;;;;;;;;;5032830;28;20017;-69
2023/10/11 10:12:05;;;;;;;21.77;8.55;;;;;;;;;;5027946;28;20033;-69
2023/10/11 10:14:33;;;;;;;32.88;8.27;;;;;;;;;;5032880;28;20021;-69
2023/10/11 10:17:10;;;;;;;24.35;7.97;;;;;;;;;;5031902;28;20028;-69
2023/10/11 10:19:39;;;;;;;23.70;7.93;;;;;;;;;;5031618;28;20567;-69
2023/10/11 10:22:09;;;;;;;29.85;6.97;;;;;;;;;;5032789;28;20033;-69
2023/10/11 10:24:34;;;;;;;18.63;7.18;;;;;;;;;;5032800;28;20032;-69
2023/10/11 10:27:33;;;;;;;19.23;6.72;;;;;;;;;;5032865;28;20017;-69
2023/10/11 10:29:59;;;;;;;28.33;7.15;;;;;;;;;;5032483;28;20444;-69
2023/10/11 10:32:28;;;;;;;21.67;8.05;;;;;;;;;;5031455;28;20026;-69
2023/10/11 10:35:18;;;;;;;26.55;7.35;;;;;;;;;;5032659;28;20068;-69
2023/10/11 10:37:50;;;;;;;26.45;8.27;;;;;;;;;;5032849;28;20045;-69
2023/10/11 10:40:24;;;;;;;22.17;6.75;;;;;;;;;;5032969;28;20057;-69
2023/10/11 10:43:19;;;;;;;31.30;6.88;;;;;;;;;;5031645;28;20032;-69
2023/10/11 10:45:47;;;;;;;29.95;7.80;;;;;;;;;;5033201;28;20017;-69
2023/10/11 10:48:16;;;;;;;21.80;6.78;;;;;;;;;;5031906;28;20036;-69
2023/10/11 10:50:52;;;;;;;22.80;7.40;;;;;;;;;;5036317;28;20426;-70
2023/10/11 10:53:18;;;;;;;27.85;8.70;;;;;;;;;;5035009;28;20035;-70
2023/10/11 10:55:44;;;;;;;29.50;8.50;;;;;;;;;;5036209;28;20072;-70
2023/10/11 10:58:17;;;;;;;28.50;9.43;;;;;;;;;;5034885;28;20026;-70
2023/10/11 11:00:43;;;;;;;22.02;7.38;;;;;;;;;;5036350;28;20036;-70
2023/10/11 11:03:19;;;;;;;36.20;9.07;;;;;;;;;;5035079;28;20059;-70
2023/10/11 11:05:58;;;;;;;25.23;8.32;;;;;;;;;;5035117;28;20100;-70
2023/10/11 11:08:29;;;;;;;26.38;7.57;;;;;;;;;;5034951;28;20025;-70
2023/10/11 11:11:18;;;;;;;30.15;8.75;;;;;;;;;;5034731;28;20505;-70
2023/10/11 11:13:44;;;;;;;29.73;7.78;;;;;;;;;;5035842;28;20048;-70
2023/10/11 11:16:17;;;;;;;30.90;7.10;;;;;;;;;;5034563;28;20026;-70
2023/10/11 11:18:45;;;;;;;21.42;6.53;;;;;;;;;;5034538;28;20403;-70
2023/10/11 11:21:25;;;;;;;22.42;6.15;;;;;;;;;;5035734;28;20021;-70
2023/10/11 11:23:51;;;;;;;24.52;6.78;;;;;;;;;;5035877;28;20029;-69
2023/10/11 11:26:23;;;;;;;16.25;6.10;;;;;;;;;;5034447;28;20029;-70
2023/10/11 11:28:51;;;;;;;18.33;5.53;;;;;;;;;;5034471;28;20493;-70
2023/10/11 11:33:48;;;;;;;22.35;6.57;;;;;;;;;;5035797;28;20034;-70
2023/10/11 11:36:30;;;;;;;37.92;7.97;;;;;;;;;;5034188;28;20030;-70
2023/10/11 11:41:47;;;;;;;27.17;7.38;;;;;;;;;;5035606;28;20087;-69
2023/10/11 11:44:19;;;;;;;25.85;8.65;;;;;;;;;;5034379;28;20032;-70
2023/10/11 11:46:52;;;;;;;23.83;7.10;;;;;;;;;;5035269;28;20032;-70
2023/10/11 11:49:26;;;;;;;23.13;6.57;;;;;;;;;;5034151;28;20401;-70
2023/10/11 11:51:53;;;;;;;22.23;7.05;;;;;;;;;;5035277;28;20029;-70
2023/10/11 11:54:22;;;;;;;26.88;6.47;;;;;;;;;;5034140;28;20036;-70
2023/10/11 11:56:48;;;;;;;23.02;6.32;;;;;;;;;;5035031;28;20025;-70
2023/10/11 11:59:19;;;;;;;19.75;5.70;;;;;;;;;;5033749;28;20537;-70
2023/10/11 12:01:49;;;;;;;21.55;6.53;;;;;;;;;;5033808;28;20071;-69
2023/10/11 12:04:14;;;;;;;19.77;6.63;;;;;;;;;;5034035;28;20026;-69
2023/10/11 12:06:40;;;;;;;26.38;6.78;;;;;;;;;;5033682;28;20032;-69
2023/10/11 12:09:06;;;;;;;28.25;6.43;;;;;;;;;;5034635;28;20018;-69
2023/10/11 12:11:31;;;;;;;22.95;5.88;;;;;;;;;;5034760;28;20033;-69
2023/10/11 12:13:58;;;;;;;20.45;6.05;;;;;;;;;;5033515;28;20079;-69
2023/10/11 12:16:28;;;;;;;25.80;6.13;;;;;;;;;;5033449;28;20388;-69
2023/10/11 12:18:59;;;;;;;28.05;5.80;;;;;;;;;;5033894;28;20430;-69
2023/10/11 12:21:26;;;;;;;21.08;6.75;;;;;;;;;;5033799;28;20053;-69
2023/10/11 12:23:51;;;;;;;23.48;6.07;;;;;;;;;;5033309;28;20471;-69
2023/10/11 12:26:17;;;;;;;28.40;7.28;;;;;;;;;;5033234;28;20037;-70
2023/10/11 12:28:43;;;;;;;26.73;6.28;;;;;;;;;;5034353;28;20097;-69
2023/10/11 12:31:09;;;;;;;32.50;8.35;;;;;;;;;;5034323;28;20033;-69
2023/10/11 12:33:34;;;;;;;30.05;7.50;;;;;;;;;;5034271;28;20578;-69
2023/10/11 12:36:01;;;;;;;21.55;5.93;;;;;;;;;;5034276;28;20049;-69
2023/10/11 12:38:26;;;;;;;18.80;5.88;;;;;;;;;;5034072;28;20033;-69
2023/10/11 12:40:51;;;;;;;25.08;7.32;;;;;;;;;;5034233;28;20028;-69
2023/10/11 12:43:22;;;;;;;19.88;6.00;;;;;;;;;;5032959;28;20022;-69
2023/10/11 12:45:48;;;;;;;21.52;5.88;;;;;;;;;;5034360;28;20044;-69
2023/10/11 12:48:15;;;;;;;18.35;6.20;;;;;;;;;;5033071;28;20029;-70
2023/10/11 12:50:40;;;;;;;25.83;7.40;;;;;;;;;;5034196;28;20029;-71
2023/10/11 12:53:13;;;;;;;17.70;7.45;;;;;;;;;;5032852;28;20027;-71
2023/10/11 12:55:49;;;;;;;21.25;6.97;;;;;;;;;;5032723;28;20025;-70
2023/10/11 12:58:15;;;;;;;22.45;6.57;;;;;;;;;;5033800;28;20041;-70
2023/10/11 13:00:58;;;;;;;19.67;6.53;;;;;;;;;;5032630;28;20017;-70
2023/10/11 13:03:29;;;;;;;29.63;7.07;;;;;;;;;;5032744;28;20029;-70
2023/10/11 13:05:54;;;;;;;22.48;6.05;;;;;;;;;;5034036;28;20017;-70
2023/10/11 13:08:28;;;;;;;19.83;5.45;;;;;;;;;;5032427;28;20037;-70
2023/10/11 13:10:53;;;;;;;27.35;7.65;;;;;;;;;;5032381;28;20021;-70
2023/10/11 13:13:20;;;;;;;19.80;5.03;;;;;;;;;;5032141;28;20037;-70
2023/10/11 13:16:03;;;;;;;27.45;8.27;;;;;;;;;;5032380;28;20017;-71
2023/10/11 13:18:33;;;;;;;19.33;5.93;;;;;;;;;;5033501;28;20060;-70
2023/10/11 13:20:59;;;;;;;29.13;7.03;;;;;;;;;;5032292;28;20023;-70
2023/10/11 13:23:32;;;;;;;28.08;6.25;;;;;;;;;;5033457;28;20074;-70
2023/10/11 13:26:08;;;;;;;22.27;7.93;;;;;;;;;;5032563;28;20104;-70
2023/10/11 13:28:34;;;;;;;15.52;7.18;;;;;;;;;;5032475;28;20069;-71
2023/10/11 13:31:02;;;;;;;15.05;6.53;;;;;;;;;;5032031;28;20025;-70
2023/10/11 13:33:31;;;;;;;12.90;4.22;;;;;;;;;;5033525;28;20025;-72
2023/10/11 13:36:00;;;;;;;13.70;4.63;;;;;;;;;;5032055;28;20025;-73
2023/10/11 13:38:30;;;;;;;10.25;2.88;;;;;;;;;;5033078;28;20078;-73
2023/10/11 13:40:56;;;;;;;23.55;9.05;;;;;;;;;;5032137;28;20057;-73
2023/10/11 13:43:22;;;;;;;18.17;7.00;;;;;;;;;;5033178;28;20071;-73
2023/10/11 13:45:48;;;;;;;21.83;5.40;;;;;;;;;;5032126;28;20455;-73
2023/10/11 13:48:14;;;;;;;17.88;5.40;;;;;;;;;;5033001;28;20033;-73
2023/10/11 13:50:42;;;;;;;13.48;4.25;;;;;;;;;;5031920;28;20108;-71
2023/10/11 13:53:13;;;;;;;16.55;4.97;;;;;;;;;;5033038;28;20017;-73
2023/10/11 13:55:40;;;;;;;12.80;5.20;;;;;;;;;;5031986;28;20022;-73
2023/10/11 13:58:09;;;;;;;20.50;7.50;;;;;;;;;;5031677;28;20022;-73
2023/10/11 14:03:42;;;;;;;14.15;5.97;;;;;;;;;;5033045;28;20036;-73
2023/10/11 14:06:42;;;;;;;33.72;14.98;;;;;;;;;;5032491;28;20041;-73
2023/10/11 14:08:45;;;;;;;17.10;7.07;;;;;;;;;;5026396;28;20454;-73
2023/10/11 14:11:15;;;;;;;36.97;16.48;;;;;;;;;;5032802;28;20026;-73
2023/10/11 14:13:45;;;;;;;10.02;5.15;;;;;;;;;;5032814;28;20048;-73
2023/10/11 14:16:14;;;;;;;4.68;2.75;;;;;;;;;;5031892;28;20041;-73
2023/10/11 14:18:39;;;;;;;5.88;4.03;;;;;;;;;;5033044;28;20029;-73
2023/10/11 14:21:09;;;;;;;5.75;2.15;;;;;;;;;;5031655;28;20535;-73
2023/10/11 14:23:36;;;;;;;6.82;3.67;;;;;;;;;;5031901;28;20022;-73
2023/10/11 14:26:04;;;;;;;6.80;2.90;;;;;;;;;;5035414;28;20030;-73
2023/10/11 14:28:29;;;;;;;3.70;2.63;;;;;;;;;;5035369;28;20032;-73
2023/10/11 14:30:55;;;;;;;8.32;2.50;;;;;;;;;;5035338;28;20104;-73
2023/10/11 14:33:20;;;;;;;10.27;2.20;;;;;;;;;;5036771;28;20487;-73
2023/10/11 14:35:47;;;;;;;9.13;2.20;;;;;;;;;;5036534;28;20048;-73
2023/10/11 14:38:16;;;;;;;4.30;2.30;;;;;;;;;;5035064;28;20030;-73
2023/10/11 14:40:46;;;;;;;11.55;2.28;;;;;;;;;;5035437;28;20053;-73
2023/10/11 14:43:14;;;;;;;17.95;6.68;;;;;;;;;;5035464;28;20080;-73
2023/10/11 14:45:40;;;;;;;11.70;2.67;;;;;;;;;;5035804;28;20493;-72
2023/10/11 14:48:08;;;;;;;7.07;1.92;;;;;;;;;;5036184;28;20021;-73
2023/10/11 14:50:34;;;;;;;9.93;3.08;;;;;;;;;;5035767;28;20025;-73
2023/10/11 14:52:59;;;;;;;10.48;4.50;;;;;;;;;;5035778;28;20033;-73
2023/10/11 14:55:26;;;;;;;10.45;3.45;;;;;;;;;;5036371;28;20025;-73
2023/10/11 14:57:53;;;;;;;8.45;3.17;;;;;;;;;;5036218;28;20063;-73
2023/10/11 15:00:22;;;;;;;9.27;2.88;;;;;;;;;;5036230;28;20021;-73
2023/10/11 15:02:48;;;;;;;10.23;2.70;;;;;;;;;;5034953;28;20102;-73
2023/10/11 15:05:15;;;;;;;12.27;3.20;;;;;;;;;;5034900;28;20052;-73
2023/10/11 15:07:47;;;;;;;10.45;3.83;;;;;;;;;;5035903;28;20028;-73
2023/10/11 15:10:13;;;;;;;11.57;3.28;;;;;;;;;;5034655;28;20403;-73
2023/10/11 15:12:41;;;;;;;10.07;2.80;;;;;;;;;;5034979;28;20025;-73
2023/10/11 15:15:08;;;;;;;6.90;4.28;;;;;;;;;;5034916;28;20079;-72
2023/10/11 15:17:33;;;;;;;9.63;5.03;;;;;;;;;;5036043;28;20029;-73
2023/10/11 15:19:58;;;;;;;20.88;4.97;;;;;;;;;;5034522;28;20502;-73
2023/10/11 15:22:24;;;;;;;13.32;3.28;;;;;;;;;;5035670;28;20034;-73